Tiempo atmosférico en la estación meteorológica de Arucas, Las Palmas (86 m.)



Fecha
DESCASC
Temp. máxima en grados centígrados (hora)
DESCASC
Temp. mínima en grados centígrados (hora)
DESCASC
Temp. media en grados centígrados
DESCASC
Racha de viento máxima en m/sg (hora)
DESCASC
Velocidad máxima media en intervalos de 10 minutos(hora)
DESCASC
Precipitaciones diarias en mm
DESCASC
Precipitaciones de 00:00 a 06:00 en mm
DESCASC
Precipitaciones de 06:00 a 12:00 en mm
DESCASC
Precipitaciones de 12:00 a 18:00 en mm
DESCASC
Precipitaciones de 18:00 a 24:00 en mm
DESCASC
18-01-2018 19.6 (11:50) 15.6 (02:00) 17.6 9.72 (05:30) 5 (17:10) 3 2.8 0.2 0 0
17-01-2018 19.3 (13:40) 16.6 (05:30) 17.9 7.78 (07:20) 4.72 (08:30) 0.2 0 0 0 0.2
16-01-2018 17.3 (12:40) 15.6 (06:10) 16.4 13.61 (07:10) 8.06 (03:20) 0 0 0 0 0
15-01-2018 17.9 (10:30) 15.1 (00:40) 16.5 12.5 (11:40) 6.94 (23:40) 2.2 0 2 0.2 0
14-01-2018 18.7 (13:10) 15.1 (00:00) 16.9 8.89 (06:20) 4.72 (05:50) 4.2 4 0.2 0 0
13-01-2018 19.1 (13:30) 15.9 (00:00) 17.5 6.11 (20:20) 3.33 (20:20) 0 0 0 0 0
12-01-2018 19.8 (13:10) 14.9 (00:00) 17.3 5.56 (13:00) 3.33 (13:00) 0 0 0 0 0
11-01-2018 19.1 (13:10) 16.5 (00:00) 17.8 7.5 (04:10) 4.17 (05:10) 4.2 4.2 0 0 0
10-01-2018 20.3 (15:10) 16.3 (00:00) 18.3 6.67 (06:40) 3.61 (06:40) 1.8 0 0.8 0 1
09-01-2018 19.9 (14:20) 14.3 (00:00) 17.1 3.89 (13:50) 2.5 (11:30) 0 0 0 0 0
08-01-2018 19.8 (14:10) 15 (00:00) 17.4 12.5 (01:40) 6.94 (01:40) 1.6 0.2 0 1.4 0
07-01-2018 18.7 (15:00) 14.5 (00:00) 16.6 13.06 (23:10) 7.5 (23:10) 0.6 0.6 0 0 0
06-01-2018 18.2 (12:30) 14.6 (00:00) 16.4 16.39 (19:30) 9.72 (20:20) 3.4 0.6 0.8 0.2 1.8
05-01-2018 19.1 (14:30) 14.1 (00:00) 16.6 10.28 (21:50) 6.11 (21:40) 0 0 0 0 0
04-01-2018 20.6 (13:40) 13.1 (03:20) 16.9 5.83 (00:50) 3.61 (10:10) 0 0 0 0 0
03-01-2018 21.7 (13:10) 15.8 (00:00) 18.8 5.83 (12:50) 4.17 (12:50) 0 0 0 0 0
02-01-2018 21.2 (12:40) 16.8 (00:00) 19 5.83 (11:20) 4.17 (11:50) 0 0 0 0 0
01-01-2018 20.4 (12:30) 16.4 (00:00) 18.4 5.83 (23:10) 3.06 (10:30) 0 0 0 0 0
31-12-2017 20.6 (13:30) 15.2 (00:00) 17.9 4.72 (15:30) 2.78 (15:10) 0 0 0 0 0
30-12-2017 20.9 (13:20) 16.1 (00:00) 18.5 5.28 (13:20) 3.61 (09:50) 0 0 0 0 0
29-12-2017 19.1 (11:20) 16.2 (00:00) 17.7 7.5 (11:00) 3.89 (11:10) 0.2 0 0.2 0 0
28-12-2017 20.6 (12:40) 16.7 (00:00) 18.7 7.5 (14:40) 3.61 (14:50) 0 0 0 0 0
27-12-2017 19.6 (15:40) 14.6 (00:00) 17.1 5 (14:20) 2.78 (12:30) 0 0 0 0 0
26-12-2017 19.8 (14:10) 14.8 (00:00) 17.3 8.89 (12:40) 5.28 (12:50) 0 0 0 0 0
25-12-2017 20.2 (13:40) 13.7 (00:00) 17 10.28 (11:20) 6.11 (10:40) 0 0 0 0 0
24-12-2017 18.6 (11:40) 13.3 (00:00) 16 10 (13:50) 6.11 (10:40) 0 0 0 0 0

Gráficas

Temp. máximas Temp. mínimas Temp. medias Precipitaciones Rachas de viento máximas Velocidades máximas media en intervalos de 10 minutos

Datos horarios

Fecha y hora oficial Temperatura (ºC) Velocidad del viento (km/h) Dirección del viento Racha (km/h) Dirección de racha Precipitación (mm) Presión (hPa) Tendencia (hPa) Humedad (%)
2018-01-22 23:00:00 15.8 3 Sudeste 12 Nordeste 0 -- -- 78
2018-01-22 22:00:00 16.7 5 Nordeste 15 Nordeste 0 -- -- 75
2018-01-22 21:00:00 17 7 Nordeste 13 Nordeste 0 -- -- 77
2018-01-22 20:00:00 17.1 6 Norte 12 Nordeste 0 -- -- 79
2018-01-22 19:00:00 17.2 3 Nordeste 10 Nordeste 0 -- -- 76
2018-01-22 18:00:00 17.5 4 Nordeste 13 Nordeste 0 -- -- 79
2018-01-22 17:00:00 18.4 6 Nordeste 15 Nordeste 0 -- -- 77
2018-01-22 16:00:00 19.7 8 Nordeste 15 Nordeste 0 -- -- 76
2018-01-22 15:00:00 19.6 9 Nordeste 16 Nordeste 0 -- -- 76
2018-01-22 14:00:00 19.5 10 Nordeste 16 Este 0 -- -- 77
2018-01-22 13:00:00 19.3 9 Nordeste 15 Nordeste 0 -- -- 77
2018-01-22 12:00:00 19.2 10 Nordeste 14 Nordeste 0 -- -- 76
2018-01-22 11:00:00 18.9 7 Nordeste 12 Este 0 -- -- 74
2018-01-22 10:00:00 18.3 6 Este 10 Sudeste 0 -- -- 76
2018-01-22 09:00:00 16.7 6 Sudeste 11 Sudeste 0 -- -- 75
2018-01-22 08:00:00 15.3 8 Sudeste 14 Sur 0 -- -- 65
2018-01-22 07:00:00 14.7 8 Sudeste 13 Sudeste 0 -- -- 65
2018-01-22 06:00:00 14.8 8 Sur 17 Sur 0 -- -- 75
2018-01-22 05:00:00 14.3 10 Sur 15 Sur 0 -- -- 86
2018-01-22 04:00:00 14.9 6 Sudeste 15 Sur 0 -- -- 86
2018-01-22 03:00:00 14.9 8 Sur 13 Sur 0 -- -- 85
2018-01-22 02:00:00 15.2 6 Sudeste 11 Sudeste 0 -- -- 85
2018-01-22 01:00:00 14.9 6 Sudeste 10 Sudeste 0 -- -- 87
2018-01-22 00:00:00 15 5 Sudeste 10 Sudeste 0 -- -- 90
2018-01-21 23:00:00 15.1 5 Sudeste 9 Sudeste 0 -- -- 90
2018-01-21 22:00:00 15.7 3 Este 8 Nordeste 0 -- -- 89
2018-01-21 21:00:00 16.1 3 Sudeste 9 Nordeste 0 -- -- 88
2018-01-21 20:00:00 17.3 5 Nordeste 14 Nordeste 0 -- -- 88
2018-01-21 19:00:00 17.6 6 Nordeste 15 Este 0 -- -- 88
2018-01-21 18:00:00 18.3 8 Este 19 Nordeste 0 -- -- 84
2018-01-21 17:00:00 19.4 10 Este 19 Nordeste 0 -- -- 81
2018-01-21 16:00:00 19.9 10 Nordeste 21 Nordeste 0 -- -- 78
2018-01-21 15:00:00 20.8 10 Nordeste 24 Este 0 -- -- 72
2018-01-21 14:00:00 22.7 16 Este 28 Este 0 -- -- 46
2018-01-21 13:00:00 23.5 17 Sudeste 33 Sudeste 0 -- -- 33
2018-01-21 12:00:00 22.9 19 Sudeste 37 Sudeste 0 -- -- 36
2018-01-21 11:00:00 22 19 Sudeste 28 Sudeste 0 -- -- 42
2018-01-21 10:00:00 20 12 Este 18 Este 0 -- -- 51
2018-01-21 09:00:00 16.2 6 Sudeste 14 Sudeste 0 -- -- 67
2018-01-21 08:00:00 15.2 10 Sudeste 15 Sudeste 0 -- -- 87
2018-01-21 07:00:00 15.4 8 Sur 14 Sudeste 0 -- -- 87
2018-01-21 06:00:00 15.6 7 Sur 12 Sur 0 -- -- 85
2018-01-21 05:00:00 15.7 6 Sudeste 10 Sudeste 0 -- -- 85
2018-01-21 04:00:00 15.9 6 Sur 9 Sur 0 -- -- 85
2018-01-21 03:00:00 16.3 5 Sudeste 9 Sudeste 0 -- -- 86
2018-01-21 02:00:00 16.4 3 Sudeste 10 Sudeste 0 -- -- 87
2018-01-21 01:00:00 16.6 4 Nordeste 10 Sudeste 0 -- -- 88
2018-01-21 00:00:00 16.8 6 Este 14 Nordeste 0 -- -- 87
2018-01-20 23:00:00 16.9 6 Este 15 Este 0 -- -- 87
2018-01-20 22:00:00 17 7 Este 15 Este 0 -- -- 85
2018-01-20 21:00:00 17.1 8 Este 16 Este 0 -- -- 83
2018-01-20 20:00:00 17.2 10 Este 17 Este 0 -- -- 81
2018-01-20 19:00:00 17.4 9 Este 18 Este 0 -- -- 78
2018-01-20 18:00:00 17.9 9 Este 18 Nordeste 0 -- -- 76
2018-01-20 17:00:00 18.3 10 Este 21 Nordeste 0 -- -- 71
2018-01-20 16:00:00 18.7 12 Nordeste 22 Nordeste 0 -- -- 72
2018-01-20 15:00:00 18.9 11 Este 24 Este 0 -- -- 69
2018-01-20 14:00:00 18.6 12 Nordeste 22 Nordeste 0 -- -- 70
2018-01-20 13:00:00 19.1 11 Nordeste 20 Este 0 -- -- 66
2018-01-20 12:00:00 18.5 11 Este 21 Este 0 -- -- 69
2018-01-20 11:00:00 18.2 12 Este 26 Nordeste 0 -- -- 70
2018-01-20 10:00:00 17.9 9 Este 22 Nordeste 0 -- -- 75
2018-01-20 09:00:00 16.9 8 Este 19 Nordeste 0 -- -- 81
2018-01-20 08:00:00 17 11 Nordeste 23 Nordeste 0 -- -- 75
2018-01-20 07:00:00 17 8 Nordeste 20 Nordeste 0 -- -- 80
2018-01-20 06:00:00 16.9 7 Nordeste 17 Norte 0 -- -- 76
2018-01-20 05:00:00 16.7 9 Nordeste 28 Nordeste 0 -- -- 78
2018-01-20 04:00:00 16.7 12 Nordeste 28 Nordeste 0 -- -- 78
2018-01-20 03:00:00 17.2 9 Nordeste 28 Nordeste 0 -- -- 75
2018-01-20 02:00:00 17.2 11 Nordeste 21 Nordeste 0 -- -- 72
2018-01-20 01:00:00 17.2 8 Norte 21 Norte 0 -- -- 71
2018-01-20 00:00:00 17.4 8 Nordeste 21 Nordeste 0 -- -- 68
2018-01-19 23:00:00 17.4 10 Nordeste 24 Norte 0 -- -- 71
2018-01-19 22:00:00 17.4 12 Norte 27 Norte 0 -- -- 74
2018-01-19 21:00:00 17.6 12 Norte 21 Norte 0 -- -- 72
2018-01-19 20:00:00 17.3 11 Norte 26 Norte 0 -- -- 69
2018-01-19 19:00:00 17.5 11 Norte 27 Nordeste 0 -- -- 69
2018-01-19 18:00:00 17.7 8 Nordeste 19 Nordeste 0 -- -- 73
2018-01-19 17:00:00 18.3 9 Norte 19 Norte 0 -- -- 72
2018-01-19 16:00:00 18.4 13 Norte 23 Norte 0 -- -- 71
2018-01-19 15:00:00 18.7 14 Norte 28 Norte 0 -- -- 69
2018-01-19 14:00:00 19.2 12 Norte 25 Norte 0 -- -- 67
2018-01-19 13:00:00 19.1 15 Norte 24 Norte 0 -- -- 66
2018-01-19 12:00:00 18.8 9 Norte 22 Norte 0 -- -- 71
2018-01-19 11:00:00 19.1 15 Norte 26 Norte 0 -- -- 68
2018-01-19 10:00:00 18.1 7 Norte 21 Nordeste 0 -- -- 71
2018-01-19 09:00:00 17.4 9 Norte 22 Norte 0 -- -- 73
2018-01-19 08:00:00 17 6 Noroeste 20 Norte 0 -- -- 72
2018-01-19 07:00:00 17.2 8 Norte 24 Norte 0 -- -- 73
2018-01-19 06:00:00 17.2 6 Noroeste 18 Noroeste 0 -- -- 71
2018-01-19 05:00:00 17.1 9 Noroeste 24 Norte 0 -- -- 73
2018-01-19 04:00:00 17.2 9 Noroeste 31 Norte 0 -- -- 73
2018-01-19 03:00:00 17.2 15 Noroeste 29 Noroeste 0 -- -- 75
2018-01-19 02:00:00 17.3 14 Noroeste 29 Norte 0 -- -- 71
2018-01-19 01:00:00 17 11 Noroeste 29 Noroeste 0 -- -- 74
2018-01-19 00:00:00 17.4 14 Noroeste 29 Noroeste 0 -- -- 74
2018-01-18 23:00:00 17.3 10 Noroeste 26 Noroeste 0 -- -- 75
2018-01-18 22:00:00 17.2 14 Noroeste 32 Noroeste 0 -- -- 75
2018-01-18 21:00:00 17 14 Noroeste 30 Norte 0 -- -- 77
2018-01-18 20:00:00 17.2 15 Noroeste 32 Noroeste 0 -- -- 74
2018-01-18 19:00:00 17.2 9 Noroeste 27 Noroeste 0 -- -- 76
2018-01-18 18:00:00 17.3 14 Noroeste 31 Noroeste 0 -- -- 71
2018-01-18 17:00:00 17.7 16 Noroeste 30 Noroeste 0 -- -- 73
2018-01-18 16:00:00 17.4 13 Noroeste 25 Oeste 0 -- -- 80
2018-01-18 15:00:00 17.4 16 Oeste 27 Noroeste 0 -- -- 82
2018-01-18 14:00:00 16.2 15 Noroeste 33 Oeste 0 -- -- 86
2018-01-18 13:00:00 17.4 13 Noroeste 28 Noroeste 0 -- -- 79
2018-01-18 12:00:00 19.5 11 Noroeste 19 Noroeste 0 -- -- 62
2018-01-18 11:00:00 18.7 9 Noroeste 23 Norte 0 -- -- 62
2018-01-18 10:00:00 17.5 7 Noroeste 27 Noroeste 0 -- -- 67
2018-01-18 09:00:00 16 6 Noroeste 31 Noroeste 0.2 -- -- 77
2018-01-18 08:00:00 17.1 12 Noroeste 33 Norte 0 -- -- 64
2018-01-18 07:00:00 17 11 Noroeste 35 Norte 0 -- -- 72
2018-01-18 06:00:00 16.6 6 Norte 35 Norte 0 -- -- 83
2018-01-18 05:00:00 16.9 6 Noroeste 19 Norte 0 -- -- 85
2018-01-18 04:00:00 16.5 10 Noroeste 25 Noroeste 0 -- -- 81
2018-01-18 03:00:00 16.5 6 Noroeste 18 Noroeste 0 -- -- 83
2018-01-18 02:00:00 15.6 5 Noroeste 28 Norte 2.6 -- -- 86
2018-01-18 01:00:00 16.4 6 Noroeste 28 Norte 0.2 -- -- 87
2018-01-18 00:00:00 16.7 10 Noroeste 20 Noroeste 0.2 -- -- 88
2018-01-17 23:00:00 17 8 Oeste 15 Oeste 0 -- -- 84
2018-01-17 22:00:00 17 6 Noroeste 16 Noroeste 0 -- -- 85
2018-01-17 21:00:00 17.3 9 Noroeste 17 Noroeste 0 -- -- 80
2018-01-17 20:00:00 17.4 7 Noroeste 17 Noroeste 0 -- -- 79
2018-01-17 19:00:00 17.3 7 Noroeste 23 Oeste 0 -- -- 78
2018-01-17 18:00:00 17.6 7 Noroeste 21 Noroeste 0 -- -- 78
2018-01-17 17:00:00 18 10 Norte 24 Norte 0 -- -- 74
2018-01-17 16:00:00 18.5 8 Noroeste 18 Norte 0 -- -- 73
2018-01-17 15:00:00 18.6 10 Norte 20 Norte 0 -- -- 71
2018-01-17 14:00:00 18.8 8 Norte 20 Norte 0 -- -- 75
2018-01-17 13:00:00 18.9 8 Norte 20 Norte 0 -- -- 72
2018-01-17 12:00:00 18.1 12 Norte 24 Norte 0 -- -- 75
2018-01-17 11:00:00 17.7 15 Norte 24 Norte 0 -- -- 75
2018-01-17 10:00:00 17.3 12 Norte 27 Norte 0 -- -- 77
2018-01-17 09:00:00 16.9 12 Norte 28 Norte 0 -- -- 78
2018-01-17 08:00:00 16.8 12 Norte 28 Norte 0 -- -- 79
2018-01-17 07:00:00 16.7 8 Norte 24 Norte 0 -- -- 80
2018-01-17 06:00:00 16.7 7 Norte 23 Norte 0 -- -- 79
2018-01-17 05:00:00 16.7 12 Norte 26 Norte 0 -- -- 79
2018-01-17 04:00:00 16.8 13 Norte 24 Norte 0 -- -- 79
2018-01-17 03:00:00 16.8 14 Norte 25 Nordeste 0 -- -- 77
2018-01-17 02:00:00 16.8 12 Norte 22 Norte 0 -- -- 78
2018-01-17 01:00:00 16.8 10 Nordeste 22 Norte 0 -- -- 77
2018-01-17 00:00:00 16.8 9 Nordeste 24 Nordeste 0 -- -- 76
2018-01-16 23:00:00 16.8 9 Nordeste 24 Norte 0 -- -- 76
2018-01-16 22:00:00 16.7 8 Nordeste 24 Nordeste 0 -- -- 76
2018-01-16 21:00:00 16.7 13 Nordeste 28 Nordeste 0 -- -- 75
2018-01-16 20:00:00 16.8 15 Nordeste 33 Norte 0 -- -- 76
2018-01-16 19:00:00 16.8 15 Nordeste 34 Nordeste 0 -- -- 75
2018-01-16 18:00:00 16.8 15 Nordeste 32 Nordeste 0 -- -- 74
2018-01-16 17:00:00 17 15 Nordeste 34 Norte 0 -- -- 75
2018-01-16 16:00:00 17.1 16 Norte 38 Nordeste 0 -- -- 73
2018-01-16 15:00:00 17.2 16 Nordeste 39 Nordeste 0 -- -- 74
2018-01-16 14:00:00 17.1 18 Nordeste 37 Nordeste 0 -- -- 71
2018-01-16 13:00:00 17.2 15 Norte 36 Nordeste 0 -- -- 70
2018-01-16 12:00:00 17 21 Nordeste 41 Nordeste 0 -- -- 67
2018-01-16 11:00:00 16.9 20 Nordeste 41 Nordeste 0 -- -- 61
2018-01-16 10:00:00 17.1 22 Norte 40 Norte 0 -- -- 64
2018-01-16 09:00:00 16.4 20 Norte 42 Norte 0 -- -- 67
2018-01-16 08:00:00 16 22 Norte 49 Norte 0 -- -- 67
2018-01-16 07:00:00 16.1 22 Norte 47 Norte 0 -- -- 64
2018-01-16 06:00:00 16.2 22 Norte 46 Norte 0 -- -- 65
2018-01-16 05:00:00 16.1 22 Norte 43 Norte 0 -- -- 65
2018-01-16 04:00:00 16.1 24 Norte 46 Norte 0 -- -- 64
2018-01-16 03:00:00 16.3 20 Norte 44 Norte 0 -- -- 65
2018-01-16 02:00:00 16.3 25 Norte 42 Norte 0 -- -- 67
2018-01-16 01:00:00 16.4 19 Norte 40 Norte 0 -- -- 64
2018-01-16 00:00:00 16.6 24 Norte 45 Norte 0 -- -- 69
2018-01-15 23:00:00 16.5 23 Norte 38 Norte 0 -- -- 67
2018-01-15 22:00:00 16.2 21 Norte 31 Norte 0 -- -- 64
2018-01-15 21:00:00 16 17 Norte 32 Norte 0 -- -- 63
2018-01-15 20:00:00 15.9 19 Norte 37 Norte 0 -- -- 60
2018-01-15 19:00:00 15.9 19 Norte 32 Norte 0 -- -- 65
2018-01-15 18:00:00 16.2 15 Norte 34 Norte 0 -- -- 66
2018-01-15 17:00:00 16.8 18 Norte 33 Norte 0.2 -- -- 65
2018-01-15 16:00:00 16.8 20 Norte 38 Nordeste 0 -- -- 72
2018-01-15 15:00:00 17 18 Norte 34 Norte 0 -- -- 75
2018-01-15 14:00:00 15.6 10 Norte 37 Norte 0 -- -- 90
2018-01-15 13:00:00 15.3 23 Norte 40 Norte 0 -- -- 89
2018-01-15 12:00:00 16 15 Noroeste 45 Norte 2 -- -- 90
2018-01-15 11:00:00 17 10 Noroeste 32 Noroeste 0 -- -- 78
2018-01-15 10:00:00 17.8 13 Noroeste 29 Noroeste 0 -- -- 67
2018-01-15 09:00:00 17 15 Noroeste 30 Noroeste 0 -- -- 67
2018-01-15 08:00:00 16.4 15 Noroeste 28 Noroeste 0 -- -- 68
2018-01-15 07:00:00 16.5 13 Noroeste 31 Oeste 0 -- -- 72
2018-01-15 06:00:00 16.3 11 Noroeste 28 Noroeste 0 -- -- 74
2018-01-15 05:00:00 16.2 10 Noroeste 27 Noroeste 0 -- -- 74
2018-01-15 04:00:00 16.3 9 Noroeste 26 Norte 0 -- -- 74
2018-01-15 03:00:00 16.1 16 Norte 35 Norte 0 -- -- 78
2018-01-15 02:00:00 16.3 13 Norte 30 Norte 0 -- -- 76
2018-01-15 01:00:00 15.6 8 Noroeste 20 Norte 0 -- -- 76
2018-01-15 00:00:00 15.9 6 Oeste 30 Noroeste 0 -- -- 71
2018-01-14 23:00:00 16.5 15 Norte 31 Norte 0 -- -- 70
2018-01-14 22:00:00 16.1 8 Norte 20 Norte 0 -- -- 69
2018-01-14 21:00:00 16.3 9 Norte 22 Norte 0 -- -- 69
2018-01-14 20:00:00 16 5 Norte 17 Norte 0 -- -- 69
2018-01-14 19:00:00 16.3 10 Norte 23 Norte 0 -- -- 68
2018-01-14 18:00:00 16.9 8 Norte 22 Norte 0 -- -- 63
2018-01-14 17:00:00 17.3 10 Nordeste 24 Norte 0 -- -- 66
2018-01-14 16:00:00 17.8 9 Norte 21 Norte 0 -- -- 67
2018-01-14 15:00:00 17.4 12 Nordeste 26 Nordeste 0 -- -- 74
2018-01-14 14:00:00 18.4 9 Nordeste 21 Norte 0 -- -- 71
2018-01-14 13:00:00 18.3 11 Norte 24 Norte 0 -- -- 67
2018-01-14 12:00:00 17.5 11 Norte 27 Nordeste 0 -- -- 74
2018-01-14 11:00:00 17.4 8 Nordeste 23 Nordeste 0 -- -- 78
2018-01-14 10:00:00 16.9 11 Nordeste 24 Nordeste 0 -- -- 79
2018-01-14 09:00:00 16.7 10 Nordeste 22 Nordeste 0 -- -- 78
2018-01-14 08:00:00 16.3 15 Nordeste 30 Nordeste 0.2 -- -- 79
2018-01-14 07:00:00 15.5 16 Nordeste 32 Norte 0 -- -- 93
2018-01-14 06:00:00 15.3 14 Nordeste 28 Nordeste 2.2 -- -- 95
2018-01-14 05:00:00 15.6 6 Sur 15 Sur 0 -- -- 92
2018-01-14 04:00:00 15.2 6 Sudeste 14 Este 1 -- -- 94
2018-01-14 03:00:00 15.7 5 Sudeste 15 Nordeste 0.4 -- -- 91
2018-01-14 02:00:00 15.9 6 Sudeste 18 Sur 0 -- -- 88
2018-01-14 01:00:00 15.5 9 Sur 17 Nordeste 0.4 -- -- 93
2018-01-14 00:00:00 15.9 7 Sur 14 Sudeste 0 -- -- 88
2018-01-13 23:00:00 16.6 6 Este 14 Sudeste 0 -- -- 84
2018-01-13 22:00:00 17 10 Este 21 Sudeste 0 -- -- 82
2018-01-13 21:00:00 17.2 7 Nordeste 22 Nordeste 0 -- -- 79
2018-01-13 20:00:00 17.4 8 Nordeste 18 Nordeste 0 -- -- 80
2018-01-13 19:00:00 17.4 6 Este 10 Nordeste 0 -- -- 74
2018-01-13 18:00:00 17.6 6 Este 15 Nordeste 0 -- -- 72
2018-01-13 17:00:00 17.8 5 Nordeste 12 Nordeste 0 -- -- 71
2018-01-13 16:00:00 18.1 7 Este 14 Este 0 -- -- 63
2018-01-13 15:00:00 18.1 7 Nordeste 17 Nordeste 0 -- -- 62
2018-01-13 14:00:00 19.1 8 Nordeste 14 Nordeste 0 -- -- 61
2018-01-13 13:00:00 18.6 6 Nordeste 17 Nordeste 0 -- -- 61
2018-01-13 12:00:00 18.5 8 Nordeste 17 Nordeste 0 -- -- 61
2018-01-13 11:00:00 17.5 5 Nordeste 13 Nordeste 0 -- -- 66
2018-01-13 10:00:00 16.9 4 Nordeste 12 Norte 0 -- -- 66
2018-01-13 09:00:00 16.5 9 Norte 15 Norte 0 -- -- 67
2018-01-13 08:00:00 16.2 3 Nordeste 15 Nordeste 0 -- -- 67
2018-01-13 07:00:00 16.4 6 Nordeste 13 Nordeste 0 -- -- 68
2018-01-13 06:00:00 16.1 3 Sur 16 Norte 0 -- -- 71
2018-01-13 05:00:00 16.4 7 Norte 20 Norte 0 -- -- 69
2018-01-13 04:00:00 16.3 3 Nordeste 20 Norte 0 -- -- 71
2018-01-13 03:00:00 16.6 9 Norte 19 Norte 0 -- -- 69
2018-01-13 02:00:00 16.7 8 Norte 17 Norte 0 -- -- 72
2018-01-13 01:00:00 16.5 2 Oeste 14 Noroeste 0 -- -- 69
2018-01-13 00:00:00 16.5 3 Noroeste 12 Nordeste 0 -- -- 70
2018-01-12 23:00:00 16.7 5 Norte 15 Norte 0 -- -- 68
2018-01-12 22:00:00 16.9 5 Nordeste 16 Nordeste 0 -- -- 68
2018-01-12 21:00:00 16.9 4 Nordeste 14 Norte 0 -- -- 72
2018-01-12 20:00:00 16.9 5 Nordeste 11 Norte 0 -- -- 74
2018-01-12 19:00:00 17 6 Nordeste 14 Nordeste 0 -- -- 71
2018-01-12 18:00:00 17.4 5 Nordeste 16 Norte 0 -- -- 72
2018-01-12 17:00:00 17.9 4 Nordeste 12 Nordeste 0 -- -- 71
2018-01-12 16:00:00 18.2 7 Nordeste 14 Nordeste 0 -- -- 70
2018-01-12 15:00:00 18.4 9 Nordeste 17 Nordeste 0 -- -- 69
2018-01-12 14:00:00 19.6 10 Nordeste 17 Este 0 -- -- 69
2018-01-12 13:00:00 19.7 12 Nordeste 20 Nordeste 0 -- -- 67
2018-01-12 12:00:00 19.3 8 Nordeste 18 Nordeste 0 -- -- 66
2018-01-12 11:00:00 18.5 9 Nordeste 17 Este 0 -- -- 68
2018-01-12 10:00:00 17.3 7 Sudeste 15 Sur 0 -- -- 72
2018-01-12 09:00:00 16 9 Sur 14 Sur 0 -- -- 74
2018-01-12 08:00:00 15.3 9 Sur 14 Sur 0 -- -- 75
2018-01-12 07:00:00 15.3 9 Sur 14 Sudeste 0 -- -- 75
2018-01-12 06:00:00 15.3 7 Sudeste 15 Sur 0 -- -- 75
2018-01-12 05:00:00 14.9 7 Sudeste 14 Sur 0 -- -- 77
2018-01-12 04:00:00 15.2 7 Sudeste 14 Sudeste 0 -- -- 77
2018-01-12 03:00:00 15.6 9 Sur 15 Sur 0 -- -- 76
2018-01-12 02:00:00 15.5 9 Sudeste 16 Sudeste 0 -- -- 78
2018-01-12 01:00:00 15.9 8 Sudeste 16 Este 0 -- -- 77
2018-01-12 00:00:00 16.5 10 Este 19 Este 0 -- -- 77
2018-01-11 23:00:00 16.8 9 Este 20 Nordeste 0 -- -- 77
2018-01-11 22:00:00 17 10 Este 21 Nordeste 0 -- -- 76
2018-01-11 21:00:00 17 9 Este 18 Este 0 -- -- 74
2018-01-11 20:00:00 16.7 7 Este 16 Este 0 -- -- 73
2018-01-11 19:00:00 17 8 Este 15 Este 0 -- -- 72
2018-01-11 18:00:00 17.4 10 Este 18 Este 0 -- -- 69
2018-01-11 17:00:00 17.9 7 Nordeste 13 Nordeste 0 -- -- 68
2018-01-11 16:00:00 18.3 9 Este 18 Nordeste 0 -- -- 67
2018-01-11 15:00:00 18.9 11 Nordeste 21 Nordeste 0 -- -- 66
2018-01-11 14:00:00 18.6 11 Nordeste 20 Este 0 -- -- 70
2018-01-11 13:00:00 19 11 Nordeste 21 Nordeste 0 -- -- 72
2018-01-11 12:00:00 18.3 10 Este 22 Este 0 -- -- 71
2018-01-11 11:00:00 17.7 10 Este 22 Este 0 -- -- 76
2018-01-11 10:00:00 17.3 9 Este 21 Este 0 -- -- 79
2018-01-11 09:00:00 17.1 10 Este 24 Este 0 -- -- 82
2018-01-11 08:00:00 17.2 13 Este 24 Este 0 -- -- 85
2018-01-11 07:00:00 17.4 10 Este 23 Este 0 -- -- 86
2018-01-11 06:00:00 17.1 12 Este 24 Nordeste 0.2 -- -- 93
2018-01-11 05:00:00 17.2 12 Nordeste 27 Este 2 -- -- 96
2018-01-11 04:00:00 17.3 8 Este 23 Este 0.4 -- -- 94
2018-01-11 03:00:00 17.1 9 Sudeste 19 Sudeste 1 -- -- 93
2018-01-11 02:00:00 17.3 4 Este 11 Sudeste 0.6 -- -- 90
2018-01-11 01:00:00 17.5 9 Sur 15 Sudeste 0 -- -- 86
2018-01-11 00:00:00 17.4 3 Sudeste 12 Sur 1 -- -- 89
2018-01-10 23:00:00 17.6 9 Sudeste 14 Sudeste 0 -- -- 86
2018-01-10 22:00:00 17.1 6 Sudeste 10 Sur 0 -- -- 87
2018-01-10 21:00:00 17.3 5 Sudeste 9 Sur 0 -- -- 88
2018-01-10 20:00:00 17.1 0 Calma 4 Sudeste 0 -- -- 90
2018-01-10 19:00:00 17.3 4 Sudeste 7 Este 0 -- -- 88
2018-01-10 18:00:00 18.7 4 Nordeste 7 Nordeste 0 -- -- 85
2018-01-10 17:00:00 19.1 3 Nordeste 9 Nordeste 0 -- -- 83
2018-01-10 16:00:00 20 5 Nordeste 11 Nordeste 0 -- -- 80
2018-01-10 15:00:00 20.1 7 Nordeste 13 Nordeste 0 -- -- 79
2018-01-10 14:00:00 20.2 6 Nordeste 12 Norte 0 -- -- 80
2018-01-10 13:00:00 19.9 5 Norte 10 Norte 0 -- -- 82
2018-01-10 12:00:00 19.9 5 Norte 9 Norte 0 -- -- 83
2018-01-10 11:00:00 19.4 4 Norte 12 Oeste 0 -- -- 82
2018-01-10 10:00:00 19 7 Oeste 13 Oeste 0 -- -- 88
2018-01-10 09:00:00 17.4 6 Oeste 16 Oeste 0 -- -- 92
2018-01-10 08:00:00 16.6 6 Sudoeste 16 Sudoeste 0.4 -- -- 94
2018-01-10 07:00:00 16.8 9 Noroeste 24 Noroeste 0.4 -- -- 93
2018-01-10 06:00:00 17.6 6 Oeste 9 Sudoeste 0 -- -- 82
2018-01-10 05:00:00 17.4 6 Oeste 11 Oeste 0 -- -- 81
2018-01-10 04:00:00 16.5 7 Sudoeste 11 Oeste 0 -- -- 82
2018-01-10 03:00:00 16.6 6 Sudoeste 13 Sudoeste 0 -- -- 80
2018-01-10 02:00:00 16.9 10 Sudoeste 13 Sudoeste 0 -- -- 79
2018-01-10 01:00:00 17.3 7 Sudoeste 13 Sudoeste 0 -- -- 79
2018-01-10 00:00:00 16.9 8 Sudoeste 12 Sudoeste 0 -- -- 84
2018-01-09 23:00:00 16.6 6 Sudoeste 9 Sudoeste 0 -- -- 91
2018-01-09 22:00:00 15.7 4 Sudoeste 8 Sudoeste 0 -- -- 91
2018-01-09 21:00:00 15.7 4 Sudoeste 6 Sudoeste 0 -- -- 91
2018-01-09 20:00:00 16 3 Sudoeste 5 Sudoeste 0 -- -- 89
2018-01-09 19:00:00 17 3 Oeste 5 Oeste 0 -- -- 86
2018-01-09 18:00:00 18.5 4 Oeste 9 Noroeste 0 -- -- 80
2018-01-09 17:00:00 19.1 6 Noroeste 13 Noroeste 0 -- -- 79
2018-01-09 16:00:00 19.3 5 Noroeste 13 Noroeste 0 -- -- 79
2018-01-09 15:00:00 19.7 8 Noroeste 14 Noroeste 0 -- -- 77
2018-01-09 14:00:00 19.7 6 Noroeste 14 Norte 0 -- -- 77
2018-01-09 13:00:00 19.2 6 Norte 14 Norte 0 -- -- 79
2018-01-09 12:00:00 19.6 6 Norte 13 Norte 0 -- -- 80
2018-01-09 11:00:00 19.2 4 Noroeste 11 Sudoeste 0 -- -- 80
2018-01-09 10:00:00 17.7 5 Oeste 13 Sudoeste 0 -- -- 83
2018-01-09 09:00:00 16.6 6 Sudoeste 10 Sudoeste 0 -- -- 85
2018-01-09 08:00:00 15.4 7 Oeste 12 Sudoeste 0 -- -- 87
2018-01-09 07:00:00 14.9 8 Sudoeste 11 Sudoeste 0 -- -- 87
2018-01-09 06:00:00 14.7 5 Sudoeste 9 Sudoeste 0 -- -- 85
2018-01-09 05:00:00 14.8 7 Sudoeste 10 Sudoeste 0 -- -- 85
2018-01-09 04:00:00 14.3 6 Sudoeste 8 Sudoeste 0 -- -- 86
2018-01-09 03:00:00 14.8 8 Sudoeste 11 Sudoeste 0 -- -- 86
2018-01-09 02:00:00 15.3 7 Sudoeste 11 Sudoeste 0 -- -- 84
2018-01-09 01:00:00 15 6 Sudoeste 10 Sudoeste 0 -- -- 85
2018-01-09 00:00:00 15.2 7 Sudoeste 10 Sudoeste 0 -- -- 86
2018-01-08 23:00:00 15.3 6 Sudoeste 10 Sudoeste 0 -- -- 86
2018-01-08 22:00:00 15.4 5 Sudoeste 8 Oeste 0 -- -- 87
2018-01-08 21:00:00 16.2 4 Sudoeste 11 Sudoeste 0 -- -- 86
2018-01-08 20:00:00 16.5 8 Sudoeste 13 Sudoeste 0 -- -- 86
2018-01-08 19:00:00 17 5 Noroeste 12 Oeste 0 -- -- 83
2018-01-08 18:00:00 16.9 5 Oeste 10 Oeste 0 -- -- 85
2018-01-08 17:00:00 17 5 Oeste 14 Oeste 0 -- -- 87
2018-01-08 16:00:00 17.1 6 Noroeste 21 Oeste 1.4 -- -- 89
2018-01-08 15:00:00 18.3 12 Oeste 26 Oeste 0 -- -- 80
2018-01-08 14:00:00 19.4 16 Oeste 27 Oeste 0 -- -- 74
2018-01-08 13:00:00 18.9 13 Oeste 24 Oeste 0 -- -- 73
2018-01-08 12:00:00 18.2 17 Oeste 27 Oeste 0 -- -- 80
2018-01-08 11:00:00 17.9 14 Oeste 27 Oeste 0 -- -- 81
2018-01-08 10:00:00 16.9 15 Oeste 29 Noroeste 0 -- -- 84
2018-01-08 09:00:00 15.9 17 Oeste 35 Oeste 0 -- -- 89
2018-01-08 08:00:00 17 20 Noroeste 36 Noroeste 0 -- -- 81
2018-01-08 07:00:00 16.9 18 Noroeste 39 Noroeste 0 -- -- 78
2018-01-08 06:00:00 16.9 21 Noroeste 39 Noroeste 0 -- -- 77
2018-01-08 05:00:00 16.7 19 Noroeste 35 Noroeste 0 -- -- 76
2018-01-08 04:00:00 16.6 18 Noroeste 38 Noroeste 0 -- -- 75
2018-01-08 03:00:00 16.9 18 Noroeste 35 Noroeste 0 -- -- 69
2018-01-08 02:00:00 16 19 Noroeste 45 Noroeste 0.2 -- -- 81
2018-01-08 01:00:00 16.6 19 Noroeste 39 Oeste 0 -- -- 76
2018-01-08 00:00:00 16.5 20 Noroeste 47 Noroeste 0 -- -- 79
2018-01-07 23:00:00 16.2 20 Noroeste 39 Noroeste 0 -- -- 79
2018-01-07 22:00:00 16.3 21 Oeste 43 Noroeste 0 -- -- 80
2018-01-07 21:00:00 15.7 20 Oeste 37 Noroeste 0 -- -- 83
2018-01-07 20:00:00 16.8 26 Noroeste 41 Noroeste 0 -- -- 73
2018-01-07 19:00:00 17 22 Noroeste 34 Oeste 0 -- -- 70
2018-01-07 18:00:00 17 18 Noroeste 32 Noroeste 0 -- -- 64
2018-01-07 17:00:00 17.5 17 Noroeste 30 Noroeste 0 -- -- 62
2018-01-07 16:00:00 17.6 18 Noroeste 31 Noroeste 0 -- -- 65
2018-01-07 15:00:00 18.7 14 Noroeste 27 Noroeste 0 -- -- 64
2018-01-07 14:00:00 17.9 15 Noroeste 27 Noroeste 0 -- -- 62
2018-01-07 13:00:00 17.9 15 Noroeste 30 Noroeste 0 -- -- 65
2018-01-07 12:00:00 18 13 Norte 40 Noroeste 0 -- -- 67
2018-01-07 11:00:00 17.8 12 Noroeste 30 Noroeste 0 -- -- 65
2018-01-07 10:00:00 16.9 15 Noroeste 33 Noroeste 0 -- -- 67
2018-01-07 09:00:00 16.2 9 Noroeste 29 Nordeste 0 -- -- 66
2018-01-07 08:00:00 16 16 Noroeste 38 Norte 0 -- -- 68
2018-01-07 07:00:00 16 13 Norte 32 Oeste 0 -- -- 68
2018-01-07 06:00:00 16 16 Norte 39 Norte 0 -- -- 73
2018-01-07 05:00:00 16.1 13 Noroeste 39 Noroeste 0 -- -- 72
2018-01-07 04:00:00 14.5 18 Noroeste 39 Noroeste 0.6 -- -- 84
2018-01-07 03:00:00 15.4 16 Noroeste 37 Noroeste 0 -- -- 81
2018-01-07 02:00:00 16.3 23 Noroeste 45 Noroeste 0 -- -- 71
2018-01-07 01:00:00 16.1 18 Noroeste 45 Noroeste 0 -- -- 76
2018-01-07 00:00:00 16.6 29 Noroeste 59 Noroeste 0 -- -- 79
2018-01-06 23:00:00 16.2 22 Noroeste 48 Noroeste 0.2 -- -- 80
2018-01-06 22:00:00 15.3 26 Noroeste 51 Oeste 0.8 -- -- 87
2018-01-06 21:00:00 15.8 22 Noroeste 59 Noroeste 0.8 -- -- 88
2018-01-06 20:00:00 17 26 Noroeste 59 Noroeste 0 -- -- 74
2018-01-06 19:00:00 15.8 24 Noroeste 50 Noroeste 0 -- -- 82
2018-01-06 18:00:00 15.3 28 Noroeste 53 Oeste 0 -- -- 85
2018-01-06 17:00:00 17.1 22 Noroeste 44 Noroeste 0 -- -- 77
2018-01-06 16:00:00 17.3 24 Noroeste 42 Oeste 0 -- -- 74
2018-01-06 15:00:00 17.2 19 Noroeste 45 Noroeste 0 -- -- 78
2018-01-06 14:00:00 18.1 22 Noroeste 42 Noroeste 0 -- -- 73
2018-01-06 13:00:00 17.2 24 Noroeste 44 Noroeste 0.2 -- -- 74
2018-01-06 12:00:00 17.4 20 Noroeste 35 Oeste 0 -- -- 77
2018-01-06 11:00:00 16.6 17 Noroeste 33 Noroeste 0.8 -- -- 85
2018-01-06 10:00:00 15.9 20 Noroeste 39 Noroeste 0 -- -- 87
2018-01-06 09:00:00 17.1 22 Noroeste 40 Noroeste 0 -- -- 78
2018-01-06 08:00:00 17.2 21 Noroeste 35 Noroeste 0 -- -- 71
2018-01-06 07:00:00 17.2 23 Noroeste 41 Noroeste 0 -- -- 80
2018-01-06 06:00:00 17.4 22 Noroeste 40 Noroeste 0 -- -- 82
2018-01-06 05:00:00 15.9 17 Oeste 33 Oeste 0.6 -- -- 86
2018-01-06 04:00:00 17.1 19 Noroeste 42 Oeste 0 -- -- 85
2018-01-06 03:00:00 18 12 Noroeste 30 Oeste 0 -- -- 78
2018-01-06 02:00:00 17.9 11 Oeste 25 Oeste 0 -- -- 75
2018-01-06 01:00:00 17.3 11 Oeste 24 Oeste 0 -- -- 68
2018-01-06 00:00:00 16.9 13 Oeste 33 Oeste 0 -- -- 76
2018-01-05 23:00:00 17.7 20 Noroeste 34 Oeste 0 -- -- 74
2018-01-05 22:00:00 17.5 19 Noroeste 37 Noroeste 0 -- -- 77
2018-01-05 21:00:00 17.6 19 Noroeste 37 Noroeste 0 -- -- 78
2018-01-05 20:00:00 17.9 18 Noroeste 31 Noroeste 0 -- -- 82
2018-01-05 19:00:00 17.7 15 Noroeste 25 Noroeste 0 -- -- 83
2018-01-05 18:00:00 17.7 13 Noroeste 21 Noroeste 0 -- -- 81
2018-01-05 17:00:00 18.2 9 Noroeste 17 Noroeste 0 -- -- 79
2018-01-05 16:00:00 18.5 6 Noroeste 14 Oeste 0 -- -- 77
2018-01-05 15:00:00 19.1 7 Noroeste 15 Norte 0 -- -- 75
2018-01-05 14:00:00 18.6 6 Nordeste 12 Norte 0 -- -- 76
2018-01-05 13:00:00 18.7 5 Norte 12 Norte 0 -- -- 78
2018-01-05 12:00:00 18.5 7 Noroeste 14 Noroeste 0 -- -- 78
2018-01-05 11:00:00 17.6 6 Noroeste 17 Oeste 0 -- -- 84
2018-01-05 10:00:00 17.7 3 Nordeste 11 Sudeste 0 -- -- 84
2018-01-05 09:00:00 15.8 8 Sudeste 12 Sudeste 0 -- -- 89
2018-01-05 08:00:00 14.2 6 Sudeste 10 Sudeste 0 -- -- 92
2018-01-05 07:00:00 14.7 8 Sudeste 14 Sudeste 0 -- -- 90
2018-01-05 06:00:00 14.8 8 Sudeste 12 Sur 0 -- -- 89
2018-01-05 05:00:00 14.4 7 Sudeste 9 Sudeste 0 -- -- 91
2018-01-05 04:00:00 14.8 0 Calma 5 Sudeste 0 -- -- 90
2018-01-05 03:00:00 14.7 2 Noroeste 5 Noroeste 0 -- -- 90
2018-01-05 02:00:00 15.4 3 Oeste 5 Oeste 0 -- -- 88
2018-01-05 01:00:00 16.2 3 Este 6 Este 0 -- -- 87
2018-01-05 00:00:00 16.1 2 Sudoeste 10 Este 0 -- -- 87
2018-01-04 23:00:00 16.4 4 Sudeste 7 Sudeste 0 -- -- 88
2018-01-04 22:00:00 15.8 4 Sudeste 7 Sudeste 0 -- -- 91
2018-01-04 21:00:00 15.4 2 Sudeste 4 Sudeste 0 -- -- 91
2018-01-04 20:00:00 16.7 0 Calma 4 Nordeste 0 -- -- 87
2018-01-04 19:00:00 17.7 2 Nordeste 8 Nordeste 0 -- -- 85
2018-01-04 18:00:00 18 4 Nordeste 12 Este 0 -- -- 85
2018-01-04 17:00:00 19.1 8 Nordeste 16 Nordeste 0 -- -- 80
2018-01-04 16:00:00 20 8 Nordeste 17 Nordeste 0 -- -- 77
2018-01-04 15:00:00 20.1 12 Nordeste 18 Este 0 -- -- 76
2018-01-04 14:00:00 20.1 12 Nordeste 18 Este 0 -- -- 75
2018-01-04 13:00:00 20.1 12 Nordeste 19 Nordeste 0 -- -- 75
2018-01-04 12:00:00 19.8 12 Nordeste 18 Nordeste 0 -- -- 78
2018-01-04 11:00:00 20 10 Este 18 Este 0 -- -- 74
2018-01-04 10:00:00 18.3 7 Este 15 Este 0 -- -- 80
2018-01-04 09:00:00 17.2 9 Sudeste 14 Sudeste 0 -- -- 84
2018-01-04 08:00:00 15.9 6 Sudeste 13 Sudeste 0 -- -- 87
2018-01-04 07:00:00 16.1 8 Sudeste 14 Sudeste 0 -- -- 87
2018-01-04 06:00:00 15.9 8 Sudeste 15 Sudeste 0 -- -- 86
2018-01-04 05:00:00 16 6 Sudeste 10 Sudeste 0 -- -- 89
2018-01-04 04:00:00 15.9 5 Sudeste 8 Sudeste 0 -- -- 80
2018-01-04 03:00:00 14 2 Sudeste 9 Sudeste 0 -- -- 52
2018-01-04 02:00:00 16.7 5 Sudeste 16 Sur 0 -- -- 41
2018-01-04 01:00:00 19.2 10 Sur 21 Sur 0 -- -- 30
2018-01-04 00:00:00 18.5 11 Sur 17 Sur 0 -- -- 36
2018-01-03 23:00:00 18.1 9 Sudeste 17 Sudeste 0 -- -- 51
2018-01-03 22:00:00 17.3 9 Sudeste 15 Sudeste 0 -- -- 70
2018-01-03 21:00:00 17.4 8 Sudeste 13 Sur 0 -- -- 81
2018-01-03 20:00:00 17.1 9 Sur 13 Sudeste 0 -- -- 87
2018-01-03 19:00:00 17.4 5 Sudeste 12 Este 0 -- -- 86
2018-01-03 18:00:00 18.6 7 Este 14 Este 0 -- -- 84
2018-01-03 17:00:00 19.7 8 Nordeste 18 Nordeste 0 -- -- 81
2018-01-03 16:00:00 20.1 9 Nordeste 17 Nordeste 0 -- -- 80
2018-01-03 15:00:00 19.8 6 Nordeste 21 Nordeste 0 -- -- 84
2018-01-03 14:00:00 20.8 13 Nordeste 21 Este 0 -- -- 80
2018-01-03 13:00:00 21.4 15 Este 21 Este 0 -- -- 63
2018-01-03 12:00:00 20.9 10 Este 18 Este 0 -- -- 72
2018-01-03 11:00:00 19.5 11 Sudeste 19 Nordeste 0 -- -- 78
2018-01-03 10:00:00 18.5 10 Este 15 Sudeste 0 -- -- 82
2018-01-03 09:00:00 16.6 8 Sudeste 13 Sur 0 -- -- 85
2018-01-03 08:00:00 15.8 7 Sudeste 11 Sudeste 0 -- -- 87
2018-01-03 07:00:00 16.7 5 Sudeste 9 Este 0 -- -- 87
2018-01-03 06:00:00 16.3 5 Sudeste 13 Sudeste 0 -- -- 89
2018-01-03 05:00:00 16.1 8 Sudeste 14 Sudeste 0 -- -- 89
2018-01-03 04:00:00 16.3 8 Sudeste 13 Sudeste 0 -- -- 89
2018-01-03 03:00:00 16.6 8 Sudeste 14 Sudeste 0 -- -- 88
2018-01-03 02:00:00 16.7 8 Sudeste 11 Sudeste 0 -- -- 82
2018-01-03 01:00:00 17.8 9 Sudeste 17 Sudeste 0 -- -- 45
2018-01-03 00:00:00 17.8 10 Sudeste 16 Sudeste 0 -- -- 57
2018-01-02 23:00:00 17.9 9 Sudeste 19 Sudeste 0 -- -- 49
2018-01-02 22:00:00 17.3 12 Sudeste 18 Sudeste 0 -- -- 74
2018-01-02 21:00:00 17.1 8 Sudeste 10 Este 0 -- -- 89
2018-01-02 20:00:00 17.7 6 Sudeste 15 Sur 0 -- -- 74
2018-01-02 19:00:00 17.9 7 Sudeste 14 Este 0 -- -- 89
2018-01-02 18:00:00 18.7 8 Este 18 Nordeste 0 -- -- 89
2018-01-02 17:00:00 19.8 8 Nordeste 14 Este 0 -- -- 83
2018-01-02 16:00:00 20.9 9 Nordeste 19 Este 0 -- -- 76
2018-01-02 15:00:00 20.4 11 Nordeste 17 Nordeste 0 -- -- 82
2018-01-02 14:00:00 20.4 11 Nordeste 18 Este 0 -- -- 82
2018-01-02 13:00:00 20.4 11 Nordeste 21 Este 0 -- -- 82
2018-01-02 12:00:00 20.6 13 Este 21 Este 0 -- -- 75
2018-01-02 11:00:00 20.2 13 Este 20 Este 0 -- -- 77
2018-01-02 10:00:00 19.2 10 Sudeste 16 Sudeste 0 -- -- 79
2018-01-02 09:00:00 17.5 9 Sudeste 13 Sudeste 0 -- -- 82
2018-01-02 08:00:00 16.9 8 Sudeste 13 Sudeste 0 -- -- 84
2018-01-02 07:00:00 17.1 8 Sudeste 15 Sudeste 0 -- -- 86
2018-01-02 06:00:00 16.9 6 Sudeste 13 Sudeste 0 -- -- 86
2018-01-02 05:00:00 17 6 Sur 11 Sudeste 0 -- -- 86
2018-01-02 04:00:00 17.3 6 Sudeste 13 Sudeste 0 -- -- 87
2018-01-02 03:00:00 17.7 8 Este 18 Este 0 -- -- 87
2018-01-02 02:00:00 17.9 9 Este 19 Este 0 -- -- 88
2018-01-02 01:00:00 18 12 Este 21 Este 0 -- -- 88
2018-01-02 00:00:00 17.8 9 Este 21 Este 0 -- -- 87
2018-01-01 23:00:00 18.2 10 Este 18 Este 0 -- -- 87
2018-01-01 22:00:00 18.4 10 Nordeste 20 Nordeste 0 -- -- 85
2018-01-01 21:00:00 18.5 9 Nordeste 18 Nordeste 0 -- -- 84
2018-01-01 20:00:00 18.5 7 Nordeste 16 Norte 0 -- -- 82
2018-01-01 19:00:00 18.5 7 Nordeste 15 Nordeste 0 -- -- 83
2018-01-01 18:00:00 18.6 6 Norte 13 Norte 0 -- -- 82
2018-01-01 17:00:00 19.4 7 Norte 12 Norte 0 -- -- 79
2018-01-01 16:00:00 19.8 7 Norte 14 Norte 0 -- -- 75
2018-01-01 15:00:00 19.6 7 Norte 13 Nordeste 0 -- -- 76
2018-01-01 14:00:00 20 8 Nordeste 16 Nordeste 0 -- -- 75
2018-01-01 13:00:00 19.7 9 Nordeste 16 Norte 0 -- -- 77
2018-01-01 12:00:00 20.1 10 Nordeste 18 Este 0 -- -- 76
2018-01-01 11:00:00 19.8 9 Este 19 Sudeste 0 -- -- 75
2018-01-01 10:00:00 18.5 11 Sudeste 17 Este 0 -- -- 79
2018-01-01 09:00:00 17.6 9 Sudeste 13 Sudeste 0 -- -- 83
2018-01-01 08:00:00 17.3 7 Este 18 Este 0 -- -- 86
2018-01-01 07:00:00 16.9 6 Este 15 Este 0 -- -- 87
2018-01-01 06:00:00 16.6 6 Sudeste 16 Este 0 -- -- 86
2018-01-01 05:00:00 17 8 Este 14 Este 0 -- -- 88
2018-01-01 04:00:00 16.4 6 Sudeste 12 Este 0 -- -- 88
2018-01-01 03:00:00 16.7 4 Sudeste 15 Este 0 -- -- 88
2018-01-01 02:00:00 16.9 9 Sudeste 16 Sudeste 0 -- -- 86
2018-01-01 01:00:00 16.7 8 Sudeste 16 Sudeste 0 -- -- 85
2018-01-01 00:00:00 17.1 9 Sudeste 17 Sur 0 -- -- 81
2017-12-31 23:00:00 17.2 9 Sudeste 14 Sudeste 0 -- -- 84
2017-12-31 22:00:00 16.3 3 Sudeste 9 Sudeste 0 -- -- 86
2017-12-31 21:00:00 16.9 4 Sur 8 Sur 0 -- -- 88
2017-12-31 20:00:00 17.1 3 Sudeste 7 Sur 0 -- -- 89
2017-12-31 19:00:00 17.5 3 Este 8 Este 0 -- -- 89
2017-12-31 18:00:00 18.8 5 Sudeste 10 Este 0 -- -- 84
2017-12-31 17:00:00 19.8 7 Nordeste 17 Nordeste 0 -- -- 85
2017-12-31 16:00:00 20.4 9 Este 17 Nordeste 0 -- -- 79
2017-12-31 15:00:00 20.5 9 Nordeste 14 Nordeste 0 -- -- 81
2017-12-31 14:00:00 20.6 8 Nordeste 12 Este 0 -- -- 79
2017-12-31 13:00:00 20 7 Nordeste 11 Este 0 -- -- 82
2017-12-31 12:00:00 20.2 6 Nordeste 12 Nordeste 0 -- -- 79
2017-12-31 11:00:00 20.2 4 Este 8 Nordeste 0 -- -- 80
2017-12-31 10:00:00 19.5 3 Este 5 Sudeste 0 -- -- 86
2017-12-31 09:00:00 16.6 4 Oeste 6 Sudoeste 0 -- -- 95
2017-12-31 08:00:00 15.4 0 Calma 3 Sur 0 -- -- 93
2017-12-31 07:00:00 16 2 Oeste 8 Sudeste 0 -- -- 92
2017-12-31 06:00:00 16.2 2 Sudoeste 9 Sudoeste 0 -- -- 92
2017-12-31 05:00:00 15.6 3 Sudoeste 4 Sudoeste 0 -- -- 91
2017-12-31 04:00:00 15.8 3 Sur 10 Sudeste 0 -- -- 85
2017-12-31 03:00:00 16.4 6 Sur 9 Sur 0 -- -- 85
2017-12-31 02:00:00 15.7 4 Sudeste 7 Sudeste 0 -- -- 81
2017-12-31 01:00:00 15.7 0 Calma 5 Oeste 0 -- -- 86
2017-12-31 00:00:00 16.1 2 Oeste 5 Sur 0 -- -- 80